Marcolorado — V2EY5 — position and weather

sailwx.info

Track history (hours):
 
Tides and Currents Weather Stations Pressure Air Temp Water Temp Dewpoint Dewpoint Depression Visibility Wind Speed Wind Dir Waves Ship Positions

Marcolorado

Last reported at 2014-Sep-06 01:03 UTC. Time now 2014-Oct-31 10:44 UTC.
Position N 29°57' W 090°09'.
Warning: this ship's position is 55 days out of date.

Length 185 m; draft 10.2 m.

Type: Cargo ship. MMSI: 305599000.

Date/timePositionNaut miles runAvg speedWind from/ knotsBaromVisibWave heightAir tempDewpointWater temp
2014-Sep-06 01:03N 29°57' W 090°09'6 8.9
2014-Sep-06 00:24N 29°58' W 090°16'7 8.5
2014-Sep-05 23:33N 29°59' W 090°24'1010.0
2014-Sep-05 22:33N 30°03' W 090°35'1110.5
2014-Sep-05 21:33N 30°01' W 090°47'6 0.3
2014-Sep-05 03:22N 30°04' W 090°52'1 1.6
2014-Sep-05 02:34N 30°04' W 090°54'0 0.0
2014-Sep-04 07:29N 30°04' W 090°54'0 0.0
2014-Sep-04 06:17N 30°04' W 090°54'0 0.0
2014-Sep-04 04:05N 30°04' W 090°54'0 0.0
2014-Sep-03 12:20N 30°04' W 090°54'0 0.0
2014-Sep-03 11:32N 30°04' W 090°54'0 0.0
2014-Sep-03 10:23N 30°04' W 090°54'0 0.0
2014-Sep-03 09:29N 30°04' W 090°54'0 0.0
2014-Sep-03 08:23N 30°04' W 090°54'0 0.0
2014-Sep-03 07:32N 30°04' W 090°54'0 0.0
2014-Sep-03 06:17N 30°04' W 090°54'1 0.0
2014-Sep-01 10:23N 30°04' W 090°53'6 7.2
2014-Sep-01 09:34N 30°00' W 090°47'10 9.6
2014-Sep-01 08:33N 30°02' W 090°36'4 3.8
2014-Sep-01 07:30N 30°03' W 090°32'0 0.0
2014-Sep-01 06:33N 30°03' W 090°32'0 0.0
2014-Sep-01 05:33N 30°03' W 090°32'0 0.0
2014-Sep-01 04:30N 30°03' W 090°32'0 0.0
2014-Sep-01 03:33N 30°03' W 090°32'0 0.0
2014-Sep-01 02:30N 30°03' W 090°32'0 0.0
2014-Sep-01 01:33N 30°03' W 090°32'0 0.0
2014-Sep-01 00:33N 30°03' W 090°32'0 0.0
2014-Aug-31 23:33N 30°03' W 090°32'0 0.0
2014-Aug-31 22:27N 30°03' W 090°32'0 0.0
2014-Aug-31 21:33N 30°03' W 090°32'0 0.0
2014-Aug-31 20:27N 30°03' W 090°32'0 0.0
2014-Aug-31 19:33N 30°03' W 090°32'0 0.0
2014-Aug-31 18:30N 30°03' W 090°32'0 0.0
2014-Aug-31 17:33N 30°03' W 090°32'0 0.0
2014-Aug-31 16:33N 30°03' W 090°32'0 0.0
2014-Aug-31 15:33N 30°03' W 090°32'0 0.0
2014-Aug-31 14:27N 30°03' W 090°32'0 0.0
2014-Aug-31 13:30N 30°03' W 090°32'0 0.0
2014-Aug-31 12:33N 30°03' W 090°32'0 0.0
2014-Aug-31 11:30N 30°03' W 090°32'0 0.0
2014-Aug-31 10:33N 30°03' W 090°32'0 0.0
2014-Aug-31 09:30N 30°03' W 090°32'0 0.0
2014-Aug-31 08:33N 30°03' W 090°32'0 0.0
2014-Aug-31 07:33N 30°03' W 090°32'0 0.0
2014-Aug-31 06:33N 30°03' W 090°32'0 0.0
2014-Aug-31 05:33N 30°03' W 090°32'0 0.0
2014-Aug-31 04:33N 30°03' W 090°32'0 0.0
2014-Aug-31 03:33N 30°03' W 090°32'0 0.0
2014-Aug-31 02:33N 30°03' W 090°32'0 0.0
2014-Aug-31 01:30N 30°03' W 090°32'0 0.0
2014-Aug-31 00:30N 30°03' W 090°32'0 0.0
2014-Aug-30 23:33N 30°03' W 090°32'0 0.0
2014-Aug-30 22:33N 30°03' W 090°32'0 0.0
2014-Aug-30 21:33N 30°03' W 090°32'0 0.0
2014-Aug-30 20:33N 30°03' W 090°32'0 0.0
2014-Aug-30 19:33N 30°03' W 090°32'0 0.0
2014-Aug-30 18:33N 30°03' W 090°32'0 0.0
2014-Aug-30 17:33N 30°03' W 090°32'0 0.0
2014-Aug-30 16:33N 30°03' W 090°32'0 0.0
2014-Aug-30 15:33N 30°03' W 090°32'0 0.0
2014-Aug-30 14:33N 30°03' W 090°32'0 0.0
2014-Aug-30 13:33N 30°03' W 090°32'0 0.0
2014-Aug-30 12:33N 30°03' W 090°32'0 0.0
2014-Aug-30 11:33N 30°03' W 090°32'0 0.0
2014-Aug-30 10:33N 30°03' W 090°32'6 6.0
2014-Aug-30 09:33N 29°60' W 090°26'8 7.6
2014-Aug-30 08:30N 29°58' W 090°17'34 6.6
2014-Aug-30 03:22N 29°35' W 089°48'  
Track history (hours):
 
Tides and Currents Weather Stations Pressure Air Temp Water Temp Dewpoint Dewpoint Depression Visibility Wind Speed Wind Dir Waves Ship Positions

Marcolorado

Last reported at 2014-Sep-06 01:03 UTC. Time now 2014-Oct-31 10:44 UTC.
Position N 29°57' W 090°09'.
Warning: this ship's position is 55 days out of date.

Length 185 m; draft 10.2 m.

Type: Cargo ship. MMSI: 305599000.

Date/timePositionNaut miles runAvg speedWind from/ knotsBaromVisibWave heightAir tempDewpointWater temp
2014-Sep-06 01:03N 29°57' W 090°09'6 8.9
2014-Sep-06 00:24N 29°58' W 090°16'7 8.5
2014-Sep-05 23:33N 29°59' W 090°24'1010.0
2014-Sep-05 22:33N 30°03' W 090°35'1110.5
2014-Sep-05 21:33N 30°01' W 090°47'6 0.3
2014-Sep-05 03:22N 30°04' W 090°52'1 1.6
2014-Sep-05 02:34N 30°04' W 090°54'0 0.0
2014-Sep-04 07:29N 30°04' W 090°54'0 0.0
2014-Sep-04 06:17N 30°04' W 090°54'0 0.0
2014-Sep-04 04:05N 30°04' W 090°54'0 0.0
2014-Sep-03 12:20N 30°04' W 090°54'0 0.0
2014-Sep-03 11:32N 30°04' W 090°54'0 0.0
2014-Sep-03 10:23N 30°04' W 090°54'0 0.0
2014-Sep-03 09:29N 30°04' W 090°54'0 0.0
2014-Sep-03 08:23N 30°04' W 090°54'0 0.0
2014-Sep-03 07:32N 30°04' W 090°54'0 0.0
2014-Sep-03 06:17N 30°04' W 090°54'1 0.0
2014-Sep-01 10:23N 30°04' W 090°53'6 7.2
2014-Sep-01 09:34N 30°00' W 090°47'10 9.6
2014-Sep-01 08:33N 30°02' W 090°36'4 3.8
2014-Sep-01 07:30N 30°03' W 090°32'0 0.0
2014-Sep-01 06:33N 30°03' W 090°32'0 0.0
2014-Sep-01 05:33N 30°03' W 090°32'0 0.0
2014-Sep-01 04:30N 30°03' W 090°32'0 0.0
2014-Sep-01 03:33N 30°03' W 090°32'0 0.0
2014-Sep-01 02:30N 30°03' W 090°32'0 0.0
2014-Sep-01 01:33N 30°03' W 090°32'0 0.0
2014-Sep-01 00:33N 30°03' W 090°32'0 0.0
2014-Aug-31 23:33N 30°03' W 090°32'0 0.0
2014-Aug-31 22:27N 30°03' W 090°32'0 0.0
2014-Aug-31 21:33N 30°03' W 090°32'0 0.0
2014-Aug-31 20:27N 30°03' W 090°32'0 0.0
2014-Aug-31 19:33N 30°03' W 090°32'0 0.0
2014-Aug-31 18:30N 30°03' W 090°32'0 0.0
2014-Aug-31 17:33N 30°03' W 090°32'0 0.0
2014-Aug-31 16:33N 30°03' W 090°32'0 0.0
2014-Aug-31 15:33N 30°03' W 090°32'0 0.0
2014-Aug-31 14:27N 30°03' W 090°32'0 0.0
2014-Aug-31 13:30N 30°03' W 090°32'0 0.0
2014-Aug-31 12:33N 30°03' W 090°32'0 0.0
2014-Aug-31 11:30N 30°03' W 090°32'0 0.0
2014-Aug-31 10:33N 30°03' W 090°32'0 0.0
2014-Aug-31 09:30N 30°03' W 090°32'0 0.0
2014-Aug-31 08:33N 30°03' W 090°32'0 0.0
2014-Aug-31 07:33N 30°03' W 090°32'0 0.0
2014-Aug-31 06:33N 30°03' W 090°32'0 0.0
2014-Aug-31 05:33N 30°03' W 090°32'0 0.0
2014-Aug-31 04:33N 30°03' W 090°32'0 0.0
2014-Aug-31 03:33N 30°03' W 090°32'0 0.0
2014-Aug-31 02:33N 30°03' W 090°32'0 0.0
2014-Aug-31 01:30N 30°03' W 090°32'0 0.0
2014-Aug-31 00:30N 30°03' W 090°32'0 0.0
2014-Aug-30 23:33N 30°03' W 090°32'0 0.0
2014-Aug-30 22:33N 30°03' W 090°32'0 0.0
2014-Aug-30 21:33N 30°03' W 090°32'0 0.0
2014-Aug-30 20:33N 30°03' W 090°32'0 0.0
2014-Aug-30 19:33N 30°03' W 090°32'0 0.0
2014-Aug-30 18:33N 30°03' W 090°32'0 0.0
2014-Aug-30 17:33N 30°03' W 090°32'0 0.0
2014-Aug-30 16:33N 30°03' W 090°32'0 0.0
2014-Aug-30 15:33N 30°03' W 090°32'0 0.0
2014-Aug-30 14:33N 30°03' W 090°32'0 0.0
2014-Aug-30 13:33N 30°03' W 090°32'0 0.0
2014-Aug-30 12:33N 30°03' W 090°32'0 0.0
2014-Aug-30 11:33N 30°03' W 090°32'0 0.0
2014-Aug-30 10:33N 30°03' W 090°32'6 6.0
2014-Aug-30 09:33N 29°60' W 090°26'8 7.6
2014-Aug-30 08:30N 29°58' W 090°17'34 6.6
2014-Aug-30 03:22N 29°35' W 089°48'  

Dump ship's entire track history